Time,TemperatureF,DewpointF,PressureIn,WindDirection,WindDirectionDegrees,WindSpeedMPH,WindSpeedGustMPH,Humidity,HourlyPrecipIn,Conditions,Clouds,dailyrainin,SoftwareType,DateUTC
2013-08-23 00:00:00,61.4,58.5,30.05,East,99,0.0,0.0,90,0.00,,CLR,0.00,VWS V14.01,2013-08-23 05:00:00,
2013-08-23 00:10:00,61.1,58.2,30.05,ESE,121,3.0,3.1,90,0.00,,CLR,0.00,VWS V14.01,2013-08-23 05:10:00,
2013-08-23 00:15:00,60.3,56.7,30.05,SSE,152,0.0,3.1,88,0.00,,CLR,0.00,VWS V14.01,2013-08-23 05:15:00,
2013-08-23 00:20:00,59.8,56.6,30.06,South,190,3.0,4.2,89,0.00,,CLR,0.00,VWS V14.01,2013-08-23 05:20:00,
2013-08-23 00:25:00,59.4,56.8,30.05,South,190,0.0,4.2,91,0.00,,CLR,0.00,VWS V14.01,2013-08-23 05:25:00,
2013-08-23 00:35:00,59.5,57.2,30.05,South,190,0.0,0.0,92,0.00,,CLR,0.00,VWS V14.01,2013-08-23 05:35:00,
2013-08-23 00:40:00,59.6,57.3,30.05,South,190,0.0,0.0,92,0.00,,CLR,0.00,VWS V14.01,2013-08-23 05:40:00,
2013-08-23 00:50:00,59.6,57.0,30.05,South,190,0.0,0.0,91,0.00,,CLR,0.00,VWS V14.01,2013-08-23 05:50:00,
2013-08-23 00:55:00,59.5,57.2,30.05,South,190,0.0,0.0,92,0.00,,CLR,0.00,VWS V14.01,2013-08-23 05:55:00,
2013-08-23 01:05:00,59.6,57.3,30.05,South,190,1.0,2.1,92,0.00,,CLR,0.00,VWS V14.01,2013-08-23 06:05:00,
2013-08-23 01:10:00,59.2,56.6,30.05,South,190,1.0,2.1,91,0.00,,CLR,0.00,VWS V14.01,2013-08-23 06:10:00,
2013-08-23 01:15:00,58.6,55.7,30.05,SSE,155,2.0,2.1,90,0.00,,CLR,0.00,VWS V14.01,2013-08-23 06:15:00,
2013-08-23 01:25:00,57.7,55.1,30.04,SSE,148,3.0,3.1,91,0.00,,CLR,0.00,VWS V14.01,2013-08-23 06:25:00,
2013-08-23 01:30:00,57.4,55.1,30.04,SSE,148,0.0,3.1,92,0.00,,CLR,0.00,VWS V14.01,2013-08-23 06:30:00,
2013-08-23 01:35:00,57.2,54.9,30.05,SSE,148,0.0,0.0,92,0.00,,CLR,0.00,VWS V14.01,2013-08-23 06:35:00,
2013-08-23 01:45:00,57.0,55.0,30.05,SSE,148,0.0,0.0,93,0.00,,CLR,0.00,VWS V14.01,2013-08-23 06:45:00,
2013-08-23 01:50:00,57.0,55.0,30.05,SSE,148,0.0,0.0,93,0.00,,CLR,0.00,VWS V14.01,2013-08-23 06:50:00,
2013-08-23 01:55:00,57.1,55.1,30.05,SSE,148,0.0,2.1,93,0.00,,CLR,0.00,VWS V14.01,2013-08-23 06:55:00,
2013-08-23 02:00:00,56.9,54.6,30.04,SSE,148,0.0,1.0,92,0.00,,CLR,0.00,VWS V14.01,2013-08-23 07:00:00,
2013-08-23 02:05:00,57.0,54.7,30.05,SSE,148,0.0,2.1,92,0.00,,CLR,0.00,VWS V14.01,2013-08-23 07:05:00,
2013-08-23 02:15:00,57.4,55.1,30.05,SSE,148,0.0,0.0,92,0.00,,CLR,0.00,VWS V14.01,2013-08-23 07:15:00,
2013-08-23 02:25:00,57.1,54.5,30.05,SSE,148,0.0,0.0,91,0.00,,CLR,0.00,VWS V14.01,2013-08-23 07:25:00,
2013-08-23 02:30:00,57.1,54.5,30.05,SSE,148,0.0,0.0,91,0.00,,CLR,0.00,VWS V14.01,2013-08-23 07:30:00,
2013-08-23 02:35:00,57.0,54.7,30.05,SSE,148,0.0,0.0,92,0.00,,CLR,0.00,VWS V14.01,2013-08-23 07:35:00,
2013-08-23 02:45:00,57.0,54.7,30.05,SSE,148,0.0,1.0,92,0.00,,CLR,0.00,VWS V14.01,2013-08-23 07:45:00,
2013-08-23 02:55:00,56.9,54.6,30.05,SSE,148,0.0,0.0,92,0.00,,CLR,0.00,VWS V14.01,2013-08-23 07:55:00,
2013-08-23 03:00:00,56.9,54.6,30.05,SSE,148,0.0,0.0,92,0.00,,CLR,0.00,VWS V14.01,2013-08-23 08:00:00,
2013-08-23 03:05:00,56.8,54.5,30.05,SSE,148,0.0,0.0,92,0.00,,CLR,0.00,VWS V14.01,2013-08-23 08:05:00,
2013-08-23 03:10:00,56.7,54.4,30.04,SSE,148,0.0,0.0,92,0.00,,CLR,0.00,VWS V14.01,2013-08-23 08:10:00,
2013-08-23 03:15:00,56.6,54.3,30.04,SSE,148,0.0,1.0,92,0.00,,CLR,0.00,VWS V14.01,2013-08-23 08:15:00,
2013-08-23 03:25:00,56.6,54.0,30.05,SSE,148,0.0,0.0,91,0.00,,SCT100,0.00,VWS V14.01,2013-08-23 08:25:00,
2013-08-23 03:30:00,56.6,54.0,30.04,SSE,148,0.0,0.0,91,0.00,,SCT100,0.00,VWS V14.01,2013-08-23 08:30:00,
2013-08-23 03:40:00,56.7,54.1,30.04,SSE,148,0.0,1.0,91,0.00,,SCT100,0.00,VWS V14.01,2013-08-23 08:40:00,
2013-08-23 03:45:00,56.7,53.8,30.04,SSE,148,1.0,2.1,90,0.00,,SCT100,0.00,VWS V14.01,2013-08-23 08:45:00,
2013-08-23 03:50:00,56.6,53.7,30.04,SSE,148,0.0,1.0,90,0.00,,SCT100,0.00,VWS V14.01,2013-08-23 08:50:00,
2013-08-23 04:00:00,56.6,53.7,30.04,SSE,148,1.0,1.0,90,0.00,,SCT100,0.00,VWS V14.01,2013-08-23 09:00:00,
2013-08-23 04:05:00,56.5,53.3,30.04,SSE,148,1.0,2.1,89,0.00,,SCT110,0.00,VWS V14.01,2013-08-23 09:05:00,
2013-08-23 04:10:00,56.4,53.2,30.04,SSE,148,1.0,2.1,89,0.00,,SCT110,0.00,VWS V14.01,2013-08-23 09:10:00,
2013-08-23 04:15:00,56.4,53.2,30.04,SSE,148,1.0,2.1,89,0.00,,SCT110,0.00,VWS V14.01,2013-08-23 09:15:00,
2013-08-23 04:25:00,56.5,53.3,30.04,SSE,148,1.0,1.0,89,0.00,,SCT110,0.00,VWS V14.01,2013-08-23 09:25:00,
2013-08-23 04:30:00,56.5,53.3,30.04,SSE,148,2.0,2.1,89,0.00,,SCT110,0.00,VWS V14.01,2013-08-23 09:30:00,
2013-08-23 04:35:00,56.6,53.4,30.04,SE,141,0.0,3.1,89,0.00,,SCT110,0.00,VWS V14.01,2013-08-23 09:35:00,
2013-08-23 04:45:00,56.8,53.3,30.04,SE,140,0.0,2.1,88,0.00,,SCT110,0.00,VWS V14.01,2013-08-23 09:45:00,
2013-08-23 04:50:00,56.9,53.4,30.04,SE,140,0.0,0.0,88,0.00,,SCT110,0.00,VWS V14.01,2013-08-23 09:50:00,
2013-08-23 04:55:00,56.8,53.3,30.04,SE,140,0.0,1.0,88,0.00,,SCT110,0.00,VWS V14.01,2013-08-23 09:55:00,
2013-08-23 05:05:00,56.5,53.0,30.05,SE,140,1.0,2.1,88,0.00,,CLR,0.00,VWS V14.01,2013-08-23 10:05:00,
2013-08-23 05:15:00,56.5,53.0,30.05,SE,140,1.0,2.1,88,0.00,,CLR,0.00,VWS V14.01,2013-08-23 10:15:00,
2013-08-23 05:20:00,56.6,53.1,30.05,SE,140,1.0,2.1,88,0.00,,CLR,0.00,VWS V14.01,2013-08-23 10:20:00,
2013-08-23 05:25:00,56.7,53.2,30.04,SE,140,1.0,2.1,88,0.00,,SCT110,0.00,VWS V14.01,2013-08-23 10:25:00,
2013-08-23 05:30:00,56.8,53.3,30.05,SE,140,0.0,2.1,88,0.00,,SCT110,0.00,VWS V14.01,2013-08-23 10:30:00,
2013-08-23 05:35:00,56.8,53.3,30.05,SE,140,0.0,2.1,88,0.00,,SCT110,0.00,VWS V14.01,2013-08-23 10:35:00,
2013-08-23 05:40:00,56.8,53.3,30.05,SE,140,0.0,2.1,88,0.00,,SCT110,0.00,VWS V14.01,2013-08-23 10:40:00,
2013-08-23 05:45:00,56.7,53.2,30.05,SE,140,0.0,2.1,88,0.00,,SCT110,0.00,VWS V14.01,2013-08-23 10:45:00,
2013-08-23 05:55:00,56.6,53.1,30.05,SE,140,0.0,0.0,88,0.00,,SCT110,0.00,VWS V14.01,2013-08-23 10:55:00,
2013-08-23 06:00:00,56.4,52.9,30.05,SE,140,0.0,0.0,88,0.00,,SCT110,0.00,VWS V14.01,2013-08-23 11:00:00,
2013-08-23 06:05:00,56.3,52.8,30.06,SE,140,0.0,0.0,88,0.00,,CLR,0.00,VWS V14.01,2013-08-23 11:05:00,
2013-08-23 06:10:00,56.2,52.7,30.05,SE,140,0.0,0.0,88,0.00,,CLR,0.00,VWS V14.01,2013-08-23 11:10:00,
2013-08-23 06:20:00,55.9,52.4,30.06,SE,140,0.0,0.0,88,0.00,,CLR,0.00,VWS V14.01,2013-08-23 11:20:00,
2013-08-23 06:30:00,55.5,52.3,30.06,SE,140,0.0,1.0,89,0.00,,CLR,0.00,VWS V14.01,2013-08-23 11:30:00,
2013-08-23 06:35:00,55.2,52.3,30.06,SE,140,0.0,1.0,90,0.00,,CLR,0.00,VWS V14.01,2013-08-23 11:35:00,
2013-08-23 06:40:00,55.1,52.2,30.06,SE,140,1.0,2.1,90,0.00,,CLR,0.00,VWS V14.01,2013-08-23 11:40:00,
2013-08-23 06:50:00,55.1,52.2,30.06,SE,140,0.0,0.0,90,0.00,,CLR,0.00,VWS V14.01,2013-08-23 11:50:00,
2013-08-23 06:55:00,55.2,52.6,30.06,SE,140,0.0,0.0,91,0.00,,CLR,0.00,VWS V14.01,2013-08-23 11:55:00,
2013-08-23 07:00:00,55.4,52.8,30.06,SE,140,0.0,0.0,91,0.00,,CLR,0.00,VWS V14.01,2013-08-23 12:00:00,
2013-08-23 07:05:00,55.8,53.2,30.06,SE,140,0.0,1.0,91,0.00,,CLR,0.00,VWS V14.01,2013-08-23 12:05:00,
2013-08-23 07:10:00,56.2,53.6,30.06,SE,140,0.0,1.0,91,0.00,,CLR,0.00,VWS V14.01,2013-08-23 12:10:00,
2013-08-23 07:20:00,57.0,54.1,30.06,SE,140,0.0,1.0,90,0.00,,CLR,0.00,VWS V14.01,2013-08-23 12:20:00,
2013-08-23 07:25:00,57.2,54.3,30.06,SE,135,1.0,2.1,90,0.00,,CLR,0.00,VWS V14.01,2013-08-23 12:25:00,
2013-08-23 07:30:00,57.5,54.6,30.06,SE,135,1.0,1.0,90,0.00,,CLR,0.00,VWS V14.01,2013-08-23 12:30:00,
2013-08-23 07:35:00,57.7,54.8,30.06,SE,133,1.0,2.1,90,0.00,,CLR,0.00,VWS V14.01,2013-08-23 12:35:00,
2013-08-23 07:45:00,58.2,55.3,30.06,SE,133,1.0,2.1,90,0.00,,CLR,0.00,VWS V14.01,2013-08-23 12:45:00,
2013-08-23 07:50:00,58.7,55.8,30.06,SE,133,0.0,2.1,90,0.00,,CLR,0.00,VWS V14.01,2013-08-23 12:50:00,
2013-08-23 07:55:00,59.2,56.0,30.06,SE,132,0.0,2.1,89,0.00,,CLR,0.00,VWS V14.01,2013-08-23 12:55:00,
2013-08-23 08:00:00,59.6,56.4,30.06,East,98,2.0,3.1,89,0.00,,CLR,0.00,VWS V14.01,2013-08-23 13:00:00,
2013-08-23 08:05:00,60.1,56.5,30.06,ESE,102,0.0,3.1,88,0.00,,CLR,0.00,VWS V14.01,2013-08-23 13:05:00,
2013-08-23 08:15:00,61.1,57.2,30.06,East,88,3.0,4.2,87,0.00,,CLR,0.00,VWS V14.01,2013-08-23 13:15:00,
2013-08-23 08:20:00,61.4,57.5,30.05,East,82,5.0,6.3,87,0.00,,CLR,0.00,VWS V14.01,2013-08-23 13:20:00,
2013-08-23 08:25:00,61.6,57.7,30.06,East,96,4.0,6.3,87,0.00,,CLR,0.00,VWS V14.01,2013-08-23 13:25:00,
2013-08-23 08:30:00,62.0,58.1,30.06,East,94,3.0,6.3,87,0.00,,CLR,0.00,VWS V14.01,2013-08-23 13:30:00,
2013-08-23 08:40:00,63.0,58.8,30.06,ESE,112,1.0,7.3,86,0.00,,CLR,0.00,VWS V14.01,2013-08-23 13:40:00,
2013-08-23 08:45:00,63.6,59.3,30.06,East,82,0.0,4.2,86,0.00,,CLR,0.00,VWS V14.01,2013-08-23 13:45:00,
2013-08-23 08:50:00,64.1,59.5,30.06,East,80,2.0,7.3,85,0.00,,CLR,0.00,VWS V14.01,2013-08-23 13:50:00,
2013-08-23 08:55:00,64.5,59.6,30.06,ESE,117,4.0,6.3,84,0.00,,CLR,0.00,VWS V14.01,2013-08-23 13:55:00,
2013-08-23 09:00:00,65.0,60.0,30.06,SE,128,4.0,7.3,84,0.00,,CLR,0.00,VWS V14.01,2013-08-23 14:00:00,
2013-08-23 09:05:00,65.6,60.6,30.06,ESE,118,3.0,8.4,84,0.00,,CLR,0.00,VWS V14.01,2013-08-23 14:05:00,
2013-08-23 09:10:00,66.1,60.8,30.05,ESE,103,3.0,8.4,83,0.00,,CLR,0.00,VWS V14.01,2013-08-23 14:10:00,
2013-08-23 09:15:00,66.7,61.4,30.05,East,92,4.0,6.3,83,0.00,,CLR,0.00,VWS V14.01,2013-08-23 14:15:00,
2013-08-23 09:20:00,67.2,61.5,30.05,ENE,75,4.0,6.3,82,0.00,,CLR,0.00,VWS V14.01,2013-08-23 14:20:00,
2013-08-23 09:25:00,67.7,62.0,30.05,ESE,113,4.0,6.3,82,0.00,,CLR,0.00,VWS V14.01,2013-08-23 14:25:00,
2013-08-23 09:35:00,69.0,62.9,30.05,East,89,2.0,6.3,81,0.00,,CLR,0.00,VWS V14.01,2013-08-23 14:35:00,
2013-08-23 09:40:00,69.6,63.5,30.05,East,90,2.0,6.3,81,0.00,,CLR,0.00,VWS V14.01,2013-08-23 14:40:00,
2013-08-23 09:50:00,70.7,64.6,30.05,ESE,103,2.0,6.3,81,0.00,,CLR,0.00,VWS V14.01,2013-08-23 14:50:00,
2013-08-23 09:55:00,71.4,65.3,30.05,East,90,3.0,6.3,81,0.00,,CLR,0.00,VWS V14.01,2013-08-23 14:55:00,
2013-08-23 10:00:00,72.1,65.9,30.05,SSE,163,4.0,6.3,81,0.00,,CLR,0.00,VWS V14.01,2013-08-23 15:00:00,
2013-08-23 10:05:00,72.8,66.3,30.05,SE,126,4.0,7.3,80,0.00,,CLR,0.00,VWS V14.01,2013-08-23 15:05:00,
2013-08-23 10:10:00,73.3,66.4,30.05,SE,143,2.0,8.4,79,0.00,,CLR,0.00,VWS V14.01,2013-08-23 15:10:00,
2013-08-23 10:15:00,73.7,66.8,30.05,SE,140,3.0,9.4,79,0.00,,CLR,0.00,VWS V14.01,2013-08-23 15:15:00,
2013-08-23 10:25:00,74.5,67.6,30.04,ESE,122,9.0,9.4,79,0.00,,CLR,0.00,VWS V14.01,2013-08-23 15:25:00,
2013-08-23 10:35:00,75.0,67.7,30.04,ESE,111,4.0,8.4,78,0.00,,CLR,0.00,VWS V14.01,2013-08-23 15:35:00,
2013-08-23 10:45:00,75.7,68.7,30.04,ESE,117,3.0,9.4,79,0.00,,CLR,0.00,VWS V14.01,2013-08-23 15:45:00,
2013-08-23 10:55:00,76.4,69.4,30.03,ESE,119,7.0,10.5,79,0.00,,CLR,0.00,VWS V14.01,2013-08-23 15:55:00,
2013-08-23 11:00:00,76.8,69.4,30.03,ESE,122,4.0,11.5,78,0.00,,CLR,0.00,VWS V14.01,2013-08-23 16:00:00,
2013-08-23 11:10:00,77.5,69.7,30.03,ESE,106,10.0,12.6,77,0.00,,CLR,0.00,VWS V14.01,2013-08-23 16:10:00,
2013-08-23 11:15:00,77.7,69.5,30.03,SE,145,5.0,13.6,76,0.00,,CLR,0.00,VWS V14.01,2013-08-23 16:15:00,
2013-08-23 11:25:00,78.2,70.4,30.02,ESE,104,9.0,12.6,77,0.00,,CLR,0.00,VWS V14.01,2013-08-23 16:25:00,
2013-08-23 11:30:00,78.5,70.3,30.02,ESE,115,8.0,11.5,76,0.00,,CLR,0.00,VWS V14.01,2013-08-23 16:30:00,
2013-08-23 11:40:00,78.8,70.2,30.02,ESE,106,8.0,12.6,75,0.00,,CLR,0.00,VWS V14.01,2013-08-23 16:40:00,
2013-08-23 11:45:00,79.0,70.4,30.02,SSE,159,6.0,11.5,75,0.00,,CLR,0.00,VWS V14.01,2013-08-23 16:45:00,
2013-08-23 12:05:00,79.3,70.7,30.01,East,92,4.0,12.6,75,0.00,,CLR,0.00,VWS V14.01,2013-08-23 17:05:00,
2013-08-23 12:15:00,79.3,71.1,30.01,SSW,193,4.0,14.7,76,0.00,,CLR,0.00,VWS V14.01,2013-08-23 17:15:00,
2013-08-23 12:25:00,79.8,71.2,30.00,ESE,115,9.0,14.7,75,0.00,,SCT022,0.00,VWS V14.01,2013-08-23 17:25:00,
2013-08-23 12:30:00,80.2,71.6,30.00,ESE,109,11.0,12.6,75,0.00,,SCT022,0.00,VWS V14.01,2013-08-23 17:30:00,
2013-08-23 12:35:00,80.3,70.9,30.00,SE,132,15.0,15.7,73,0.00,,SCT022,0.00,VWS V14.01,2013-08-23 17:35:00,
2013-08-23 12:40:00,80.3,71.7,30.00,SSE,165,7.0,15.7,75,0.00,,SCT022,0.00,VWS V14.01,2013-08-23 17:40:00,
2013-08-23 12:45:00,80.3,71.7,30.00,SSE,161,1.0,11.5,75,0.00,,BKN028,0.00,VWS V14.01,2013-08-23 17:45:00,
2013-08-23 12:50:00,80.2,71.2,30.00,SE,124,9.0,13.6,74,0.00,,BKN028,0.00,VWS V14.01,2013-08-23 17:50:00,
2013-08-23 12:55:00,80.1,71.5,30.00,SE,134,5.0,12.6,75,0.00,,BKN028,0.00,VWS V14.01,2013-08-23 17:55:00,
2013-08-23 13:00:00,80.2,71.9,30.00,SE,137,2.0,12.6,76,0.00,,BKN028,0.00,VWS V14.01,2013-08-23 18:00:00,
2013-08-23 13:10:00,80.6,72.3,29.99,ESE,123,8.0,13.6,76,0.00,,BKN030,0.00,VWS V14.01,2013-08-23 18:10:00,
2013-08-23 13:15:00,80.9,72.6,29.99,ESE,118,11.0,13.6,76,0.00,,BKN030,0.00,VWS V14.01,2013-08-23 18:15:00,
2013-08-23 13:20:00,81.0,71.5,29.99,South,182,9.0,14.7,73,0.00,,BKN030,0.00,VWS V14.01,2013-08-23 18:20:00,
2013-08-23 13:25:00,81.2,71.7,29.99,SE,138,5.0,15.7,73,0.00,,BKN030,0.00,VWS V14.01,2013-08-23 18:25:00,
2013-08-23 13:30:00,81.1,72.0,29.99,SSE,163,10.0,13.6,74,0.00,,BKN030,0.00,VWS V14.01,2013-08-23 18:30:00,
2013-08-23 13:35:00,81.0,71.5,29.99,SSE,150,10.0,15.7,73,0.00,,BKN030,0.00,VWS V14.01,2013-08-23 18:35:00,
2013-08-23 13:40:00,80.9,71.8,29.99,SSE,157,6.0,15.7,74,0.00,,BKN030,0.00,VWS V14.01,2013-08-23 18:40:00,
2013-08-23 13:45:00,80.8,71.7,29.99,SSE,167,11.0,13.6,74,0.00,,BKN031,0.00,VWS V14.01,2013-08-23 18:45:00,
2013-08-23 13:50:00,81.2,72.1,29.99,South,181,5.0,13.6,74,0.00,,BKN031,0.00,VWS V14.01,2013-08-23 18:50:00,
2013-08-23 14:00:00,81.9,72.4,29.99,SE,143,6.0,10.5,73,0.00,,BKN031,0.00,VWS V14.01,2013-08-23 19:00:00,
2013-08-23 14:05:00,82.0,72.1,29.99,ESE,117,6.0,14.7,72,0.00,,SCT033,0.00,VWS V14.01,2013-08-23 19:05:00,
2013-08-23 14:10:00,82.1,72.2,29.98,South,179,7.0,14.7,72,0.00,,SCT033,0.00,VWS V14.01,2013-08-23 19:10:00,
2013-08-23 14:20:00,82.1,71.8,29.98,SSE,149,6.0,12.6,71,0.00,,SCT033,0.00,VWS V14.01,2013-08-23 19:20:00,
2013-08-23 14:25:00,82.3,72.4,29.98,SE,146,10.0,13.6,72,0.00,,SCT038,0.00,VWS V14.01,2013-08-23 19:25:00,
2013-08-23 14:30:00,82.5,72.2,29.98,East,101,9.0,13.6,71,0.00,,SCT038,0.00,VWS V14.01,2013-08-23 19:30:00,
2013-08-23 14:35:00,82.2,72.3,29.97,ESE,117,14.0,14.7,72,0.00,,SCT038,0.00,VWS V14.01,2013-08-23 19:35:00,
2013-08-23 14:40:00,82.1,72.2,29.97,SSE,168,10.0,17.8,72,0.00,,SCT038,0.00,VWS V14.01,2013-08-23 19:40:00,
2013-08-23 14:50:00,82.9,72.9,29.97,ESE,109,7.0,14.7,72,0.00,,BKN039,0.00,VWS V14.01,2013-08-23 19:50:00,
2013-08-23 14:55:00,82.7,72.3,29.97,SE,140,4.0,15.7,71,0.00,,BKN039,0.00,VWS V14.01,2013-08-23 19:55:00,
2013-08-23 15:05:00,82.9,72.5,29.96,SE,145,6.0,12.6,71,0.00,,SCT043,0.00,VWS V14.01,2013-08-23 20:05:00,
2013-08-23 15:10:00,82.9,72.9,29.96,ESE,117,11.0,16.8,72,0.00,,SCT043,0.00,VWS V14.01,2013-08-23 20:10:00,
2013-08-23 15:15:00,82.8,72.4,29.96,ESE,115,6.0,14.7,71,0.00,,SCT043,0.00,VWS V14.01,2013-08-23 20:15:00,
2013-08-23 15:25:00,82.9,72.1,29.96,South,175,8.0,12.6,70,0.00,,SCT047,0.00,VWS V14.01,2013-08-23 20:25:00,
2013-08-23 15:35:00,83.1,72.3,29.95,ESE,113,8.0,19.9,70,0.00,,SCT047,0.00,VWS V14.01,2013-08-23 20:35:00,
2013-08-23 15:40:00,83.1,72.3,29.95,SSE,151,5.0,13.6,70,0.00,,SCT047,0.00,VWS V14.01,2013-08-23 20:40:00,
2013-08-23 15:45:00,83.1,71.9,29.95,SE,138,10.0,13.6,69,0.00,,SCT041,0.00,VWS V14.01,2013-08-23 20:45:00,
2013-08-23 15:50:00,83.2,72.4,29.95,SSE,167,4.0,12.6,70,0.00,,SCT041,0.00,VWS V14.01,2013-08-23 20:50:00,
2013-08-23 15:55:00,83.4,72.2,29.95,SSE,150,5.0,14.7,69,0.00,,SCT041,0.00,VWS V14.01,2013-08-23 20:55:00,
2013-08-23 16:00:00,83.7,72.5,29.94,SSE,150,14.0,14.7,69,0.00,,SCT041,0.00,VWS V14.01,2013-08-23 21:00:00,
2013-08-23 16:10:00,83.7,72.0,29.94,East,101,7.0,14.7,68,0.00,,SCT040,0.00,VWS V14.01,2013-08-23 21:10:00,
2013-08-23 16:15:00,83.2,71.6,29.94,SSE,163,7.0,14.7,68,0.00,,SCT040,0.00,VWS V14.01,2013-08-23 21:15:00,
2013-08-23 16:20:00,82.9,72.5,29.94,East,99,7.0,14.7,71,0.00,,SCT040,0.00,VWS V14.01,2013-08-23 21:20:00,
2013-08-23 16:25:00,83.1,72.3,29.94,SSE,160,8.0,13.6,70,0.00,,SCT037,0.00,VWS V14.01,2013-08-23 21:25:00,
2013-08-23 16:30:00,83.4,72.2,29.94,SE,146,6.0,16.8,69,0.00,,SCT037,0.00,VWS V14.01,2013-08-23 21:30:00,
2013-08-23 16:35:00,83.7,72.5,29.94,SSW,194,5.0,15.7,69,0.00,,SCT037,0.00,VWS V14.01,2013-08-23 21:35:00,
2013-08-23 16:40:00,84.1,72.8,29.94,SSE,153,4.0,9.4,69,0.00,,CLR,0.00,VWS V14.01,2013-08-23 21:40:00,
2013-08-23 16:45:00,84.0,72.3,29.94,SSE,161,4.0,15.7,68,0.00,,CLR,0.00,VWS V14.01,2013-08-23 21:45:00,
2013-08-23 16:55:00,83.5,72.3,29.94,SSE,153,2.0,13.6,69,0.00,,CLR,0.00,VWS V14.01,2013-08-23 21:55:00,
2013-08-23 17:00:00,83.7,72.9,29.94,SE,131,8.0,11.5,70,0.00,,CLR,0.00,VWS V14.01,2013-08-23 22:00:00,
2013-08-23 17:05:00,83.6,71.9,29.94,SE,142,8.0,15.7,68,0.00,,CLR,0.00,VWS V14.01,2013-08-23 22:05:00,
2013-08-23 17:10:00,83.6,72.4,29.93,ESE,121,7.0,15.7,69,0.00,,CLR,0.00,VWS V14.01,2013-08-23 22:10:00,
2013-08-23 17:15:00,83.4,72.2,29.93,SE,132,5.0,14.7,69,0.00,,CLR,0.00,VWS V14.01,2013-08-23 22:15:00,
2013-08-23 17:25:00,82.9,71.7,29.93,SE,132,8.0,12.6,69,0.00,,SCT043,0.00,VWS V14.01,2013-08-23 22:25:00,
2013-08-23 17:30:00,83.0,72.2,29.93,ESE,121,4.0,18.9,70,0.00,,SCT043,0.00,VWS V14.01,2013-08-23 22:30:00,
2013-08-23 17:35:00,83.0,72.2,29.93,SE,140,3.0,15.7,70,0.00,,SCT043,0.00,VWS V14.01,2013-08-23 22:35:00,
2013-08-23 17:40:00,82.6,71.8,29.93,SE,132,9.0,14.7,70,0.00,,CLR,0.00,VWS V14.01,2013-08-23 22:40:00,
2013-08-23 17:50:00,82.2,71.9,29.93,SSE,159,6.0,13.6,71,0.00,,CLR,0.00,VWS V14.01,2013-08-23 22:50:00,
2013-08-23 17:55:00,82.0,71.7,29.93,SSE,163,7.0,13.6,71,0.00,,CLR,0.00,VWS V14.01,2013-08-23 22:55:00,
2013-08-23 18:00:00,82.1,72.2,29.93,SE,136,8.0,16.8,72,0.00,,CLR,0.00,VWS V14.01,2013-08-23 23:00:00,
2013-08-23 18:10:00,82.1,72.2,29.93,SE,145,14.0,14.7,72,0.00,,CLR,0.00,VWS V14.01,2013-08-23 23:10:00,
2013-08-23 18:20:00,82.0,72.1,29.93,South,176,9.0,14.7,72,0.00,,CLR,0.00,VWS V14.01,2013-08-23 23:20:00,
2013-08-23 18:25:00,82.1,72.2,29.93,SE,126,8.0,13.6,72,0.00,,CLR,0.00,VWS V14.01,2013-08-23 23:25:00,
2013-08-23 18:35:00,82.0,72.5,29.93,SSE,148,8.0,13.6,73,0.00,,CLR,0.00,VWS V14.01,2013-08-23 23:35:00,
2013-08-23 18:45:00,81.6,72.5,29.92,SE,142,10.0,13.6,74,0.00,,CLR,0.00,VWS V14.01,2013-08-23 23:45:00,
2013-08-23 18:50:00,81.4,72.7,29.93,SE,130,8.0,14.7,75,0.00,,CLR,0.00,VWS V14.01,2013-08-23 23:50:00,
2013-08-23 19:00:00,81.0,72.7,29.92,ESE,112,8.0,14.7,76,0.00,,CLR,0.00,VWS V14.01,2013-08-24 00:00:00,
2013-08-23 19:05:00,80.7,72.4,29.92,SSE,147,3.0,13.6,76,0.00,,CLR,0.00,VWS V14.01,2013-08-24 00:05:00,
2013-08-23 19:15:00,80.1,72.2,29.92,SE,142,3.0,13.6,77,0.00,,CLR,0.00,VWS V14.01,2013-08-24 00:15:00,
2013-08-23 19:25:00,79.6,72.1,29.92,SSE,161,7.0,11.5,78,0.00,,SCT120,0.00,VWS V14.01,2013-08-24 00:25:00,
2013-08-23 19:30:00,79.4,72.3,29.92,SE,146,2.0,12.6,79,0.00,,SCT120,0.00,VWS V14.01,2013-08-24 00:30:00,
2013-08-23 19:35:00,79.2,72.5,29.92,SE,144,6.0,10.5,80,0.00,,SCT120,0.00,VWS V14.01,2013-08-24 00:35:00,
2013-08-23 19:45:00,78.6,72.3,29.92,SE,142,9.0,11.5,81,0.00,,SCT120,0.00,VWS V14.01,2013-08-24 00:45:00,
2013-08-23 19:50:00,78.3,72.0,29.92,SE,136,4.0,10.5,81,0.00,,SCT120,0.00,VWS V14.01,2013-08-24 00:50:00,
2013-08-23 19:55:00,78.2,71.9,29.92,SSE,153,4.0,14.7,81,0.00,,SCT120,0.00,VWS V14.01,2013-08-24 00:55:00,
2013-08-23 20:00:00,78.0,71.7,29.92,SSE,162,5.0,14.7,81,0.00,,SCT120,0.00,VWS V14.01,2013-08-24 01:00:00,
2013-08-23 20:10:00,77.6,71.7,29.92,SE,142,6.0,8.4,82,0.00,,CLR,0.00,VWS V14.01,2013-08-24 01:10:00,
2013-08-23 20:20:00,76.9,71.7,29.92,SE,135,7.0,12.6,84,0.00,,CLR,0.00,VWS V14.01,2013-08-24 01:20:00,
2013-08-23 20:30:00,76.4,71.6,29.92,ESE,118,6.0,10.5,85,0.00,,BKN110,0.00,VWS V14.01,2013-08-24 01:30:00,
2013-08-23 20:40:00,76.0,71.2,29.92,SE,125,8.0,9.4,85,0.00,,BKN110,0.00,VWS V14.01,2013-08-24 01:40:00,
2013-08-23 20:50:00,75.7,71.2,29.92,SE,142,8.0,15.7,86,0.00,,SCT110,0.00,VWS V14.01,2013-08-24 01:50:00,
2013-08-23 21:00:00,75.4,71.3,29.92,SE,140,5.0,9.4,87,0.00,,SCT110,0.00,VWS V14.01,2013-08-24 02:00:00,
2013-08-23 21:05:00,75.3,71.2,29.93,ESE,121,9.0,13.6,87,0.00,,CLR,0.00,VWS V14.01,2013-08-24 02:05:00,
2013-08-23 21:10:00,75.2,71.1,29.93,SSE,153,3.0,11.5,87,0.00,,CLR,0.00,VWS V14.01,2013-08-24 02:10:00,
2013-08-23 21:20:00,75.1,71.0,29.93,SSE,148,3.0,9.4,87,0.00,,CLR,0.00,VWS V14.01,2013-08-24 02:20:00,
2013-08-23 21:25:00,75.0,70.9,29.93,SE,139,5.0,10.5,87,0.00,,SCT120,0.00,VWS V14.01,2013-08-24 02:25:00,
2013-08-23 21:35:00,74.8,70.7,29.93,SE,146,4.0,10.5,87,0.00,,SCT120,0.00,VWS V14.01,2013-08-24 02:35:00,
2013-08-23 21:40:00,74.7,70.9,29.93,SE,134,5.0,11.5,88,0.00,,SCT120,0.00,VWS V14.01,2013-08-24 02:40:00,
2013-08-23 21:45:00,74.6,70.8,29.93,SE,139,10.0,10.5,88,0.00,,SCT120,0.00,VWS V14.01,2013-08-24 02:45:00,
2013-08-23 21:50:00,74.5,70.7,29.93,SE,137,4.0,11.5,88,0.00,,SCT120,0.00,VWS V14.01,2013-08-24 02:50:00,
2013-08-23 21:55:00,74.4,70.6,29.93,ESE,119,5.0,13.6,88,0.00,,SCT120,0.00,VWS V14.01,2013-08-24 02:55:00,
2013-08-23 22:00:00,74.4,70.6,29.93,SSE,158,7.0,12.6,88,0.00,,SCT120,0.00,VWS V14.01,2013-08-24 03:00:00,
2013-08-23 22:05:00,74.2,70.4,29.93,SSE,161,8.0,11.5,88,0.00,,SCT120,0.00,VWS V14.01,2013-08-24 03:05:00,
2013-08-23 22:10:00,74.2,70.4,29.93,ESE,121,4.0,11.5,88,0.00,,SCT120,0.00,VWS V14.01,2013-08-24 03:10:00,
2013-08-23 22:15:00,74.0,70.2,29.93,ESE,117,4.0,11.5,88,0.00,,SCT120,0.00,VWS V14.01,2013-08-24 03:15:00,
2013-08-23 22:25:00,73.7,70.3,29.93,SSE,152,3.0,10.5,89,0.00,,CLR,0.00,VWS V14.01,2013-08-24 03:25:00,
2013-08-23 22:35:00,73.4,70.0,29.93,SE,138,3.0,10.5,89,0.00,,CLR,0.00,VWS V14.01,2013-08-24 03:35:00,
2013-08-23 22:45:00,73.2,70.1,29.93,SE,133,3.0,10.5,90,0.00,,CLR,0.00,VWS V14.01,2013-08-24 03:45:00,
2013-08-23 22:55:00,73.0,69.9,29.93,South,181,3.0,13.6,90,0.00,,CLR,0.00,VWS V14.01,2013-08-24 03:55:00,
2013-08-23 23:00:00,73.0,69.9,29.93,ESE,123,4.0,9.4,90,0.00,,CLR,0.00,VWS V14.01,2013-08-24 04:00:00,
2013-08-23 23:05:00,72.9,69.8,29.93,SSE,155,6.0,12.6,90,0.00,,CLR,0.00,VWS V14.01,2013-08-24 04:05:00,
2013-08-23 23:10:00,72.9,69.8,29.93,ESE,111,7.0,11.5,90,0.00,,CLR,0.00,VWS V14.01,2013-08-24 04:10:00,
2013-08-23 23:15:00,73.0,69.9,29.92,SE,131,3.0,13.6,90,0.00,,CLR,0.00,VWS V14.01,2013-08-24 04:15:00,
2013-08-23 23:20:00,73.0,69.9,29.92,SE,143,5.0,11.5,90,0.00,,CLR,0.00,VWS V14.01,2013-08-24 04:20:00,
2013-08-23 23:30:00,73.0,69.9,29.92,SSE,149,8.0,13.6,90,0.00,,CLR,0.00,VWS V14.01,2013-08-24 04:30:00,
2013-08-23 23:40:00,73.2,70.1,29.92,SSE,148,5.0,13.6,90,0.00,,CLR,0.00,VWS V14.01,2013-08-24 04:40:00,
2013-08-23 23:45:00,73.1,70.0,29.92,SSE,150,5.0,12.6,90,0.00,,CLR,0.00,VWS V14.01,2013-08-24 04:45:00,
2013-08-23 23:50:00,73.2,70.1,29.92,SE,144,6.0,16.8,90,0.00,,CLR,0.00,VWS V14.01,2013-08-24 04:50:00,